CheckWX is a tool to help pilots better visualize weather data.  It is not intended as a substitute for an official pre-flight weather briefing.

03:17:15 UTC

KSPW METAR
Spencer Municipal Airport
Spencer, Iowa, USA
Current

24 mins ago

KSPW 230253Z AUTO 31003KT 10SM CLR 16/14 A3025 RMK AO2 SLP241 T01610144 53002
Observed
Jul-23 @ 02:53 UTC
Wind
  • 310° at 3 KTS
Visibility
10 SM
Flight Rules
VFR
Cloud Levels
  • Clear skies
Temperature
16°C / 61°F
Dewpoint
14°C / 57°F
Humidity
88%
Altimeter
30.25" Hg
Pressure
1024.42 hPa
Previous

1 hour ago

KSPW 230153Z AUTO 33005KT 10SM CLR 18/14 A3024 RMK AO2 SLP238 T01830139
Observed
Jul-23 @ 01:53 UTC
Wind
  • 330° at 5 KTS
Visibility
10 SM
Flight Rules
VFR
Cloud Levels
  • Clear skies
Temperature
18°C / 64°F
Dewpoint
14°C / 57°F
Humidity
78%
Altimeter
30.24" Hg
Pressure
1024.02 hPa
Previous

2 hours ago

KSPW 230053Z AUTO 35006KT 10SM CLR 23/13 A3024 RMK AO2 SLP236 T02280133
Observed
Jul-23 @ 00:53 UTC
Wind
  • 350° at 6 KTS
Visibility
10 SM
Flight Rules
VFR
Cloud Levels
  • Clear skies
Temperature
23°C / 73°F
Dewpoint
13°C / 55°F
Humidity
53%
Altimeter
30.24" Hg
Pressure
1024.02 hPa